createdAt,value
2019-05-09T00:01:14.004Z,0.57
2019-05-09T00:03:40.982Z,0.60
2019-05-09T00:06:09.179Z,0.70
2019-05-09T00:08:36.528Z,0.90
2019-05-09T00:11:04.092Z,0.60
2019-05-09T00:13:31.518Z,0.93
2019-05-09T00:15:58.852Z,0.70
2019-05-09T00:18:26.173Z,0.80
2019-05-09T00:20:59.762Z,0.70
2019-05-09T00:23:27.433Z,0.80
2019-05-09T00:25:54.751Z,0.90
2019-05-09T00:28:23.679Z,0.97
2019-05-09T00:31:03.443Z,0.88
2019-05-09T00:33:30.963Z,0.77
2019-05-09T00:35:58.269Z,0.70
2019-05-09T00:38:30.443Z,0.90
2019-05-09T00:40:59.025Z,1.00
2019-05-09T00:43:26.750Z,1.02
2019-05-09T00:46:14.107Z,0.90
2019-05-09T00:49:07.026Z,1.00
2019-05-09T00:51:34.525Z,0.80
2019-05-09T00:54:03.894Z,1.10
2019-05-09T00:56:33.173Z,0.90
2019-05-09T00:59:01.004Z,1.00
2019-05-09T01:01:28.802Z,1.02
2019-05-09T01:03:56.900Z,1.00
2019-05-09T01:06:24.335Z,1.00
2019-05-09T01:08:53.622Z,1.10
2019-05-09T01:11:24.289Z,1.00
2019-05-09T01:13:51.145Z,1.00
2019-05-09T01:16:18.561Z,1.00
2019-05-09T01:18:45.932Z,0.90
2019-05-09T01:21:13.568Z,1.00
2019-05-09T01:23:41.062Z,0.87
2019-05-09T01:26:08.872Z,0.90
2019-05-09T01:28:36.932Z,1.03
2019-05-09T01:31:04.482Z,0.90
2019-05-09T01:33:38.860Z,1.00
2019-05-09T01:36:06.206Z,1.00
2019-05-09T01:38:34.028Z,1.00
2019-05-09T01:41:03.840Z,1.10
2019-05-09T01:43:33.563Z,1.20
2019-05-09T01:46:00.541Z,1.03
2019-05-09T01:48:27.974Z,1.17
2019-05-09T01:50:55.449Z,0.70
2019-05-09T01:53:28.012Z,1.10
2019-05-09T01:55:58.516Z,1.00
2019-05-09T01:58:27.842Z,1.07
2019-05-09T02:00:55.852Z,1.00
2019-05-09T02:03:23.417Z,1.10
2019-05-09T02:05:52.911Z,1.00
2019-05-09T02:08:20.122Z,1.10
2019-05-09T02:10:48.056Z,1.07
2019-05-09T02:13:15.382Z,1.03
2019-05-09T02:16:03.446Z,0.90
2019-05-09T02:18:48.400Z,1.07
2019-05-09T02:21:15.822Z,1.10
2019-05-09T02:23:43.627Z,1.00
2019-05-09T02:26:13.477Z,1.10
2019-05-09T02:28:42.633Z,1.10
2019-05-09T02:31:10.220Z,1.30
2019-05-09T02:33:37.600Z,1.30
2019-05-09T02:36:05.258Z,1.10
2019-05-09T02:38:32.603Z,1.30
2019-05-09T02:41:00.071Z,1.30
2019-05-09T02:43:29.062Z,1.10
2019-05-09T02:46:03.701Z,1.20
2019-05-09T02:48:31.117Z,1.30
2019-05-09T02:51:00.186Z,1.20
2019-05-09T02:53:29.079Z,1.37
2019-05-09T02:55:58.485Z,1.50
2019-05-09T02:58:29.108Z,1.30
2019-05-09T03:01:04.419Z,1.47
2019-05-09T03:03:34.997Z,1.30
2019-05-09T03:06:02.573Z,1.57
2019-05-09T03:08:30.113Z,1.70
2019-05-09T03:10:59.069Z,1.80
2019-05-09T03:13:29.127Z,2.00
2019-05-09T03:16:01.023Z,2.10
2019-05-09T03:18:28.796Z,2.10
2019-05-09T03:21:08.635Z,1.80
2019-05-09T03:23:38.707Z,2.20
2019-05-09T03:26:08.885Z,2.13
2019-05-09T03:28:45.266Z,2.33
2019-05-09T03:31:19.688Z,2.50
2019-05-09T03:33:50.061Z,2.77
2019-05-09T03:36:18.125Z,2.93
2019-05-09T03:38:47.598Z,2.60
2019-05-09T03:41:17.574Z,2.47
2019-05-09T03:43:44.623Z,2.50
2019-05-09T03:46:43.433Z,2.27
2019-05-09T03:49:11.809Z,2.53
2019-05-09T03:51:39.504Z,2.17
2019-05-09T03:54:08.047Z,2.47
2019-05-09T03:56:39.603Z,2.20
2019-05-09T03:59:08.316Z,2.40
2019-05-09T04:01:38.074Z,2.60
2019-05-09T04:04:05.523Z,2.70
2019-05-09T04:06:33.182Z,2.90
2019-05-09T04:09:00.522Z,3.40
2019-05-09T04:11:27.946Z,3.87
2019-05-09T04:14:00.124Z,3.23
2019-05-09T04:16:27.892Z,3.30
2019-05-09T04:18:57.968Z,3.30
2019-05-09T04:21:24.997Z,3.27
2019-05-09T04:23:52.588Z,3.20
2019-05-09T04:26:41.144Z,3.60
2019-05-09T04:29:08.446Z,3.07
2019-05-09T04:31:38.180Z,2.93
2019-05-09T04:34:07.740Z,3.00
2019-05-09T04:36:40.710Z,3.40
2019-05-09T04:39:12.929Z,3.53
2019-05-09T04:41:39.695Z,3.30
2019-05-09T04:44:16.859Z,3.30
2019-05-09T04:46:39.276Z,3.27
2019-05-09T04:49:08.219Z,3.03
2019-05-09T04:51:39.146Z,2.80
2019-05-09T04:54:07.296Z,2.80
2019-05-09T04:56:38.238Z,2.60
2019-05-09T04:59:07.490Z,2.93
2019-05-09T05:02:03.393Z,2.40
2019-05-09T05:04:30.712Z,2.07
2019-05-09T05:06:58.688Z,1.70
2019-05-09T05:09:27.738Z,2.50
2019-05-09T05:11:57.690Z,1.90
2019-05-09T05:14:24.604Z,2.50
2019-05-09T05:16:53.981Z,2.30
2019-05-09T05:19:22.641Z,2.50
2019-05-09T05:21:50.235Z,2.37
2019-05-09T05:24:27.778Z,1.90
2019-05-09T05:26:54.881Z,2.67
2019-05-09T05:29:22.940Z,2.80
2019-05-09T05:31:51.251Z,3.60
2019-05-09T05:34:28.228Z,4.80
2019-05-09T05:36:58.047Z,4.33
2019-05-09T05:39:28.143Z,3.90
2019-05-09T05:41:57.584Z,4.00
2019-05-09T05:44:24.743Z,3.67
2019-05-09T05:47:10.297Z,3.33
2019-05-09T05:49:38.571Z,3.27
2019-05-09T05:52:08.061Z,2.70
2019-05-09T05:54:37.675Z,2.30
2019-05-09T05:57:04.615Z,2.83
2019-05-09T05:59:32.415Z,1.90
2019-05-09T06:02:00.203Z,1.75
2019-05-09T06:04:27.747Z,1.80
2019-05-09T06:06:55.217Z,1.52
2019-05-09T06:09:22.562Z,1.60
2019-05-09T06:11:49.958Z,1.70
2019-05-09T06:14:18.502Z,1.40
2019-05-09T06:16:48.317Z,1.67
2019-05-09T06:19:17.595Z,1.60
2019-05-09T06:21:45.172Z,1.55
2019-05-09T06:24:12.566Z,1.60
2019-05-09T06:26:40.831Z,1.55
2019-05-09T06:29:08.283Z,1.60
2019-05-09T06:31:37.509Z,1.40
2019-05-09T06:34:05.238Z,1.50
2019-05-09T06:36:32.663Z,1.50
2019-05-09T06:39:00.047Z,1.30
2019-05-09T06:41:28.584Z,1.20
2019-05-09T06:44:16.218Z,1.25
2019-05-09T06:46:54.698Z,1.17
2019-05-09T06:49:31.259Z,1.47
2019-05-09T06:51:58.078Z,1.00
2019-05-09T06:54:27.733Z,1.22
2019-05-09T06:56:54.892Z,1.02
2019-05-09T06:59:22.275Z,1.30
2019-05-09T07:02:12.198Z,1.10
2019-05-09T07:04:52.504Z,1.07
2019-05-09T07:07:55.020Z,0.90
2019-05-09T07:10:22.893Z,1.30
2019-05-09T07:12:50.190Z,1.00
2019-05-09T07:15:17.793Z,1.00
2019-05-09T07:17:45.304Z,0.70
2019-05-09T07:20:12.718Z,1.02
2019-05-09T07:22:51.689Z,1.07
2019-05-09T07:25:47.850Z,1.27
2019-05-09T07:28:17.849Z,1.02
2019-05-09T07:30:57.344Z,1.10
2019-05-09T07:33:53.573Z,0.90
2019-05-09T07:36:20.955Z,0.98
2019-05-09T07:38:48.416Z,1.12
2019-05-09T07:41:17.814Z,1.02
2019-05-09T07:43:47.614Z,0.82
2019-05-09T07:46:28.976Z,0.88
2019-05-09T07:48:57.757Z,1.20
2019-05-09T07:51:27.494Z,1.30
2019-05-09T07:53:54.885Z,1.00
2019-05-09T07:56:22.602Z,1.22
2019-05-09T07:58:50.007Z,1.15
2019-05-09T08:01:19.111Z,1.02
2019-05-09T08:03:48.842Z,1.30
2019-05-09T08:06:18.404Z,1.20
2019-05-09T08:08:47.624Z,1.35
2019-05-09T08:11:15.182Z,1.30
2019-05-09T08:13:43.539Z,1.50
2019-05-09T08:16:14.469Z,1.55
2019-05-09T08:18:40.260Z,1.00
2019-05-09T08:21:08.526Z,1.60
2019-05-09T08:23:37.967Z,0.62
2019-05-09T08:26:05.458Z,1.50
2019-05-09T08:28:32.860Z,1.20
2019-05-09T08:31:00.697Z,1.20
2019-05-09T08:33:28.720Z,1.20
2019-05-09T08:35:58.517Z,1.30
2019-05-09T08:38:27.976Z,0.80
2019-05-09T08:41:09.344Z,1.30
2019-05-09T08:43:38.268Z,0.57
2019-05-09T08:46:07.863Z,1.05
2019-05-09T08:48:37.865Z,1.00
2019-05-09T08:51:08.983Z,1.20
2019-05-09T08:53:38.063Z,0.70
2019-05-09T08:56:05.735Z,1.00
2019-05-09T08:58:33.190Z,1.30
2019-05-09T09:01:04.142Z,0.90
2019-05-09T09:03:29.823Z,1.22
2019-05-09T09:05:57.895Z,1.30
2019-05-09T09:08:25.669Z,1.22
2019-05-09T09:10:53.162Z,1.27
2019-05-09T09:13:20.502Z,1.40
2019-05-09T09:16:05.144Z,1.02
2019-05-09T09:18:18.138Z,1.02
2019-05-09T09:20:45.628Z,1.10
2019-05-09T09:23:12.976Z,0.93
2019-05-09T09:25:40.265Z,1.42
2019-05-09T09:28:08.799Z,1.30
2019-05-09T09:30:38.560Z,1.10
2019-05-09T09:33:05.896Z,1.20
2019-05-09T09:35:33.945Z,1.30
2019-05-09T09:38:01.637Z,1.50
2019-05-09T09:40:29.035Z,0.82
2019-05-09T09:42:58.099Z,1.02
2019-05-09T09:45:27.979Z,1.52
2019-05-09T09:47:55.337Z,1.17
2019-05-09T09:50:22.680Z,1.40
2019-05-09T09:52:49.978Z,1.20
2019-05-09T09:55:18.450Z,0.98
2019-05-09T09:57:48.283Z,1.35
2019-05-09T10:01:09.969Z,1.15
2019-05-09T10:03:37.438Z,1.17
2019-05-09T10:06:04.911Z,0.90
2019-05-09T10:08:32.685Z,1.20
2019-05-09T10:11:00.053Z,0.80
2019-05-09T10:13:28.581Z,1.20
2019-05-09T10:16:29.088Z,1.00
2019-05-09T10:18:58.906Z,0.90
2019-05-09T10:21:29.611Z,1.00
2019-05-09T10:23:57.631Z,1.20
2019-05-09T10:26:25.266Z,0.93
2019-05-09T10:28:52.679Z,1.00
2019-05-09T10:31:20.144Z,1.22
2019-05-09T10:33:48.319Z,1.17
2019-05-09T10:36:15.821Z,1.20
2019-05-09T10:38:43.206Z,1.20
2019-05-09T10:41:11.438Z,0.95
2019-05-09T10:44:03.884Z,0.60
2019-05-09T10:46:52.504Z,0.82
2019-05-09T10:49:12.323Z,0.90
2019-05-09T10:51:39.989Z,0.80
2019-05-09T10:54:08.358Z,1.22
2019-05-09T10:56:38.145Z,0.82
2019-05-09T10:59:07.461Z,1.50
2019-05-09T11:01:34.343Z,1.10
2019-05-09T11:04:01.725Z,1.20
2019-05-09T11:06:29.225Z,0.98
2019-05-09T11:08:58.342Z,2.05
2019-05-09T11:11:28.173Z,1.37
2019-05-09T11:13:58.278Z,1.07
2019-05-09T11:16:39.582Z,1.50
2019-05-09T11:18:54.388Z,0.88
2019-05-09T11:21:21.811Z,1.30
2019-05-09T11:23:49.258Z,1.30
2019-05-09T11:26:17.948Z,1.10
2019-05-09T11:28:45.692Z,0.80
2019-05-09T11:31:13.327Z,1.00
2019-05-09T11:33:41.611Z,0.70
2019-05-09T11:36:10.069Z,0.70
2019-05-09T11:38:43.435Z,0.72
2019-05-09T11:41:08.282Z,0.60
2019-05-09T11:43:38.805Z,0.40
2019-05-09T11:46:05.433Z,0.70
2019-05-09T11:48:34.798Z,0.75
2019-05-09T11:51:02.700Z,0.55
2019-05-09T11:53:30.137Z,0.60
2019-05-09T11:55:58.308Z,0.90
2019-05-09T11:58:27.990Z,0.80
2019-05-09T12:00:55.689Z,0.80
2019-05-09T12:03:23.678Z,0.78
2019-05-09T12:05:51.062Z,0.80
2019-05-09T12:08:25.303Z,0.85
2019-05-09T12:10:53.088Z,1.25
2019-05-09T12:13:20.484Z,1.10
2019-05-09T12:15:48.924Z,0.95
2019-05-09T12:18:16.557Z,1.20
2019-05-09T12:20:43.965Z,1.00
2019-05-09T12:23:11.315Z,1.10
2019-05-09T12:25:38.869Z,1.30
2019-05-09T12:28:07.795Z,1.30
2019-05-09T12:30:37.822Z,1.60
2019-05-09T12:33:04.704Z,1.70
2019-05-09T12:35:32.166Z,1.60
2019-05-09T12:37:59.584Z,1.80
2019-05-09T12:40:27.107Z,1.67
2019-05-09T12:42:54.445Z,1.25
2019-05-09T12:45:22.326Z,1.42
2019-05-09T12:48:05.179Z,1.30
2019-05-09T12:50:19.344Z,1.22
2019-05-09T12:52:48.729Z,1.42
2019-05-09T12:55:17.885Z,1.30
2019-05-09T12:57:45.642Z,0.90
2019-05-09T13:00:15.470Z,1.10
2019-05-09T13:02:42.897Z,0.68
2019-05-09T13:05:10.645Z,0.62
2019-05-09T13:07:42.017Z,0.50
2019-05-09T13:10:09.025Z,0.50
2019-05-09T13:12:38.893Z,0.50
2019-05-09T13:15:08.686Z,0.50
2019-05-09T13:17:38.479Z,0.50
2019-05-09T13:20:07.994Z,0.60
2019-05-09T13:22:35.655Z,0.70
2019-05-09T13:25:03.818Z,0.60
2019-05-09T13:27:32.210Z,0.60
2019-05-09T13:30:00.149Z,0.78
2019-05-09T13:32:28.105Z,0.60
2019-05-09T13:34:57.845Z,0.60
2019-05-09T13:37:29.345Z,0.60
2019-05-09T13:40:02.812Z,0.70
2019-05-09T13:42:40.820Z,0.60
2019-05-09T13:45:11.313Z,1.20
2019-05-09T13:47:39.680Z,1.00
2019-05-09T13:50:09.487Z,1.00
2019-05-09T13:52:38.285Z,1.00
2019-05-09T13:55:08.708Z,1.00
2019-05-09T13:57:36.801Z,1.00
2019-05-09T14:00:12.075Z,0.98
2019-05-09T14:02:44.740Z,0.90
2019-05-09T14:05:10.522Z,1.20
2019-05-09T14:07:38.611Z,0.80
2019-05-09T14:10:09.028Z,0.82
2019-05-09T14:12:38.033Z,0.90
2019-05-09T14:15:08.235Z,0.60
2019-05-09T14:17:48.391Z,0.90
2019-05-09T14:20:04.404Z,0.80
2019-05-09T14:22:32.163Z,0.78
2019-05-09T14:24:59.827Z,0.37
2019-05-09T14:27:28.556Z,0.45
2019-05-09T14:29:58.961Z,0.60
2019-05-09T14:32:26.841Z,1.00
2019-05-09T14:34:54.269Z,1.00
2019-05-09T14:37:21.718Z,1.00
2019-05-09T14:39:58.068Z,0.80
2019-05-09T14:42:19.265Z,0.75
2019-05-09T14:44:47.511Z,0.50
2019-05-09T14:47:17.439Z,0.90
2019-05-09T14:49:44.874Z,0.90
2019-05-09T14:52:13.328Z,0.80
2019-05-09T14:54:40.942Z,0.55
2019-05-09T14:57:09.651Z,0.80
2019-05-09T14:59:38.351Z,0.93
2019-05-09T15:02:09.045Z,1.00
2019-05-09T15:04:38.716Z,0.60
2019-05-09T15:07:07.591Z,0.70
2019-05-09T15:09:35.553Z,0.80
2019-05-09T15:12:02.899Z,0.80
2019-05-09T15:14:30.295Z,0.75
2019-05-09T15:16:57.679Z,1.00
2019-05-09T15:19:25.150Z,1.10
2019-05-09T15:21:56.404Z,1.37
2019-05-09T15:24:22.073Z,1.00
2019-05-09T15:26:49.818Z,0.98
2019-05-09T15:29:17.258Z,0.90
2019-05-09T15:31:53.170Z,0.90
2019-05-09T15:34:14.924Z,1.20
2019-05-09T15:36:42.824Z,1.02
2019-05-09T15:39:18.376Z,0.90
2019-05-09T15:41:47.872Z,1.07
2019-05-09T15:44:18.459Z,0.90
2019-05-09T15:46:49.389Z,1.07
2019-05-09T15:49:18.340Z,1.00
2019-05-09T15:51:47.813Z,1.00
2019-05-09T15:54:17.838Z,1.10
2019-05-09T15:56:48.140Z,1.10
2019-05-09T15:59:14.640Z,1.17
2019-05-09T16:01:42.356Z,1.15
2019-05-09T16:04:09.797Z,1.10
2019-05-09T16:06:39.120Z,1.42
2019-05-09T16:09:11.303Z,1.10
2019-05-09T16:11:37.767Z,1.22
2019-05-09T16:14:07.432Z,0.90
2019-05-09T16:16:34.567Z,1.10
2019-05-09T16:19:02.059Z,0.70
2019-05-09T16:21:29.567Z,0.75
2019-05-09T16:23:59.285Z,0.75
2019-05-09T16:26:26.306Z,0.95
2019-05-09T16:28:53.618Z,0.85
2019-05-09T16:31:21.320Z,1.00
2019-05-09T16:33:48.737Z,0.95
2019-05-09T16:36:17.536Z,1.10
2019-05-09T16:38:48.810Z,1.10
2019-05-09T16:41:18.359Z,0.90
2019-05-09T16:43:45.007Z,1.40
2019-05-09T16:46:12.682Z,1.30
2019-05-09T16:48:40.558Z,1.10
2019-05-09T16:51:08.170Z,1.12
2019-05-09T16:53:35.488Z,1.37
2019-05-09T16:56:02.912Z,0.82
2019-05-09T16:58:30.244Z,0.90
2019-05-09T17:00:57.885Z,0.90
2019-05-09T17:03:25.224Z,0.90
2019-05-09T17:05:53.006Z,1.20
2019-05-09T17:08:21.061Z,2.25
2019-05-09T17:10:48.814Z,1.27
2019-05-09T17:13:18.424Z,0.93
2019-05-09T17:15:45.633Z,0.82
2019-05-09T17:18:14.084Z,0.98
2019-05-09T17:20:52.233Z,1.15
2019-05-09T17:23:21.437Z,0.72
2019-05-09T17:25:49.217Z,0.80
2019-05-09T17:28:17.801Z,0.98
2019-05-09T17:30:45.517Z,1.12
2019-05-09T17:33:13.257Z,0.90
2019-05-09T17:35:40.945Z,0.80
2019-05-09T17:38:08.836Z,0.93
2019-05-09T17:40:39.063Z,0.90
2019-05-09T17:43:08.303Z,0.80
2019-05-09T17:45:39.339Z,0.93
2019-05-09T17:48:04.740Z,1.20
2019-05-09T17:50:32.058Z,0.82
2019-05-09T17:52:59.329Z,1.00
2019-05-09T17:55:27.131Z,1.00
2019-05-09T17:57:54.935Z,1.20
2019-05-09T18:00:23.541Z,0.85
2019-05-09T18:02:51.272Z,0.72
2019-05-09T18:05:18.880Z,1.10
2019-05-09T18:07:48.507Z,1.20
2019-05-09T18:10:18.376Z,1.10
2019-05-09T18:12:48.039Z,1.02
2019-05-09T18:15:18.400Z,1.00
2019-05-09T18:17:47.796Z,0.95
2019-05-09T18:20:17.419Z,0.98
2019-05-09T18:22:44.941Z,0.98
2019-05-09T18:25:14.164Z,0.80
2019-05-09T18:27:41.696Z,1.00
2019-05-09T18:30:10.714Z,1.10
2019-05-09T18:32:47.718Z,1.00
2019-05-09T18:35:17.836Z,1.10
2019-05-09T18:37:45.191Z,1.00
2019-05-09T18:40:13.492Z,1.07
2019-05-09T18:42:41.039Z,1.00
2019-05-09T18:45:09.239Z,1.00
2019-05-09T18:47:36.944Z,1.27
2019-05-09T18:50:04.828Z,1.10
2019-05-09T18:52:32.369Z,1.10
2019-05-09T18:54:59.727Z,1.10
2019-05-09T18:57:27.090Z,1.20
2019-05-09T18:59:55.258Z,1.20
2019-05-09T19:02:22.708Z,1.10
2019-05-09T19:04:51.270Z,1.00
2019-05-09T19:07:22.459Z,0.90
2019-05-09T19:09:48.495Z,1.02
2019-05-09T19:12:15.951Z,0.90
2019-05-09T19:14:44.510Z,1.40
2019-05-09T19:17:40.674Z,1.25
2019-05-09T19:20:27.774Z,1.00
2019-05-09T19:22:55.114Z,1.20
2019-05-09T19:25:22.964Z,1.10
2019-05-09T19:27:50.806Z,1.30
2019-05-09T19:30:18.540Z,1.10
2019-05-09T19:32:46.034Z,1.52
2019-05-09T19:35:13.814Z,1.12
2019-05-09T19:37:41.441Z,2.00
2019-05-09T19:40:08.762Z,2.50
2019-05-09T19:42:36.541Z,1.00
2019-05-09T19:45:04.750Z,0.98
2019-05-09T19:47:32.232Z,1.00
2019-05-09T19:49:59.659Z,0.93
2019-05-09T19:52:37.700Z,1.00
2019-05-09T19:54:56.727Z,1.20
2019-05-09T19:57:24.152Z,1.10
2019-05-09T19:59:51.533Z,8.18
2019-05-09T20:02:18.815Z,2.05
2019-05-09T20:04:46.439Z,1.47
2019-05-09T20:07:13.862Z,1.05
2019-05-09T20:09:46.817Z,1.10
2019-05-09T20:12:24.562Z,1.30
2019-05-09T20:14:52.913Z,0.93
2019-05-09T20:17:20.895Z,1.10
2019-05-09T20:19:48.471Z,0.98
2019-05-09T20:22:16.025Z,0.85
2019-05-09T20:24:43.959Z,0.90
2019-05-09T20:27:11.704Z,1.10
2019-05-09T20:29:39.479Z,0.90
2019-05-09T20:32:06.922Z,1.05
2019-05-09T20:34:35.103Z,1.07
2019-05-09T20:37:02.668Z,1.10
2019-05-09T20:39:31.185Z,1.05
2019-05-09T20:41:59.113Z,1.05
2019-05-09T20:44:26.622Z,1.00
2019-05-09T20:46:54.092Z,1.40
2019-05-09T20:49:21.607Z,1.40
2019-05-09T20:51:48.958Z,2.05
2019-05-09T20:54:20.865Z,1.32
2019-05-09T20:56:46.154Z,1.00
2019-05-09T20:59:13.641Z,1.57
2019-05-09T21:01:41.065Z,1.10
2019-05-09T21:04:08.917Z,1.10
2019-05-09T21:06:36.536Z,1.02
2019-05-09T21:09:08.490Z,1.00
2019-05-09T21:11:35.881Z,1.10
2019-05-09T21:14:03.890Z,1.30
2019-05-09T21:16:31.394Z,1.10
2019-05-09T21:18:59.091Z,1.65
2019-05-09T21:21:26.433Z,1.10
2019-05-09T21:23:53.872Z,1.17
2019-05-09T21:26:21.403Z,1.30
2019-05-09T21:28:48.914Z,1.05
2019-05-09T21:31:16.262Z,1.30
2019-05-09T21:33:43.689Z,1.30
2019-05-09T21:36:11.083Z,1.45
2019-05-09T21:38:39.304Z,1.30
2019-05-09T21:41:07.044Z,1.42
2019-05-09T21:43:34.924Z,1.52
2019-05-09T21:46:02.262Z,1.60
2019-05-09T21:48:38.827Z,1.60
2019-05-09T21:51:24.710Z,1.75
2019-05-09T21:53:52.471Z,1.50
2019-05-09T21:56:19.891Z,1.55
2019-05-09T21:58:47.634Z,1.50
2019-05-09T22:01:17.797Z,1.70
2019-05-09T22:03:45.509Z,1.60
2019-05-09T22:06:12.874Z,1.77
2019-05-09T22:08:40.957Z,1.95
2019-05-09T22:11:08.398Z,1.60
2019-05-09T22:13:36.177Z,1.45
2019-05-09T22:16:03.689Z,1.65
2019-05-09T22:18:31.401Z,1.72
2019-05-09T22:20:58.785Z,1.72
2019-05-09T22:23:26.494Z,1.60
2019-05-09T22:25:53.953Z,2.05
2019-05-09T22:28:21.378Z,1.70
2019-05-09T22:30:49.401Z,1.80
2019-05-09T22:33:16.839Z,1.90
2019-05-09T22:35:44.836Z,1.90
2019-05-09T22:38:12.311Z,1.52
2019-05-09T22:40:39.690Z,1.75
2019-05-09T22:43:07.195Z,1.50
2019-05-09T22:45:34.492Z,1.92
2019-05-09T22:48:01.841Z,1.92
2019-05-09T22:50:29.299Z,1.95
2019-05-09T22:52:56.680Z,1.72
2019-05-09T22:55:23.985Z,1.90
2019-05-09T22:57:51.315Z,1.98
2019-05-09T23:00:18.766Z,1.80
2019-05-09T23:02:46.159Z,1.62
2019-05-09T23:05:14.234Z,1.70
2019-05-09T23:07:41.664Z,2.08
2019-05-09T23:10:09.463Z,1.60
2019-05-09T23:12:37.107Z,1.62
2019-05-09T23:15:05.486Z,1.87
2019-05-09T23:17:32.903Z,1.80
2019-05-09T23:20:02.137Z,1.70
2019-05-09T23:22:31.289Z,1.57
2019-05-09T23:24:58.704Z,1.72
2019-05-09T23:27:26.157Z,1.60
2019-05-09T23:29:53.912Z,1.80
2019-05-09T23:32:40.776Z,2.00
2019-05-09T23:35:08.727Z,1.77
2019-05-09T23:37:36.564Z,1.80
2019-05-09T23:40:04.981Z,1.92
2019-05-09T23:42:32.430Z,2.17
2019-05-09T23:44:59.892Z,1.80
2019-05-09T23:47:27.256Z,2.00
2019-05-09T23:49:54.669Z,2.12
2019-05-09T23:52:22.510Z,2.10
2019-05-09T23:55:08.957Z,1.87
2019-05-09T23:57:54.975Z,1.90
